createdAt,value
2022-10-25T04:33:31.185Z,12.66
2022-10-25T10:37:07.138Z,35.86
2022-10-25T10:39:35.175Z,36.60
2022-10-25T10:42:16.059Z,37.38
2022-10-25T10:45:02.089Z,38.08
2022-10-25T10:47:34.526Z,38.63
2022-10-25T10:50:03.100Z,39.08
2022-10-25T10:52:37.340Z,39.54
2022-10-25T10:55:05.229Z,39.70
2022-10-25T10:57:34.823Z,38.11
2022-10-25T11:00:03.089Z,37.31
2022-10-25T11:02:40.260Z,37.86
2022-10-25T11:05:24.566Z,38.07
2022-10-25T11:07:58.505Z,39.10
2022-10-25T11:10:31.918Z,39.04
2022-10-25T11:13:08.060Z,39.70
2022-10-25T11:15:49.137Z,40.06
2022-10-25T11:18:20.153Z,40.22
2022-10-25T11:20:54.104Z,39.94
2022-10-25T11:23:28.602Z,40.31
2022-10-25T11:26:03.024Z,40.90
2022-10-25T11:28:40.536Z,41.37
2022-10-25T11:31:16.610Z,41.43
2022-10-25T11:33:58.425Z,41.24
2022-10-25T11:36:43.747Z,40.89
2022-10-25T11:39:24.690Z,40.36
2022-10-25T11:41:55.185Z,39.98
2022-10-25T11:44:59.106Z,40.13
2022-10-25T11:47:43.146Z,40.74
2022-10-25T11:50:23.233Z,41.23
2022-10-25T11:53:13.885Z,41.66
2022-10-25T11:55:49.062Z,42.27
2022-10-25T11:58:34.750Z,42.57
2022-10-25T12:01:14.981Z,42.72
2022-10-25T12:03:57.247Z,42.80
2022-10-25T12:06:34.805Z,42.70
2022-10-25T12:09:08.112Z,41.42
2022-10-25T12:11:41.806Z,39.10
2022-10-25T12:14:14.994Z,37.09
2022-10-25T12:16:44.308Z,35.50
2022-10-25T12:19:19.249Z,34.16
2022-10-25T12:21:51.552Z,33.12
2022-10-25T12:24:24.469Z,32.31
2022-10-25T12:26:55.598Z,31.64
2022-10-25T12:29:29.898Z,31.03
2022-10-25T12:32:02.013Z,30.43
2022-10-25T12:34:38.763Z,29.89
2022-10-25T12:37:14.454Z,29.47
2022-10-25T12:39:43.786Z,29.06
2022-10-25T12:42:17.484Z,28.75
2022-10-25T12:45:04.604Z,28.45
2022-10-25T12:47:50.724Z,28.15
2022-10-25T12:50:40.371Z,27.93
2022-10-25T12:53:40.351Z,27.69
2022-10-25T12:56:22.190Z,27.47
2022-10-25T12:59:02.941Z,27.29
2022-10-25T13:01:43.866Z,27.10
2022-10-25T13:04:26.578Z,26.91
2022-10-25T13:06:55.211Z,26.73
2022-10-25T13:09:27.104Z,26.55
2022-10-25T13:11:59.566Z,26.48
2022-10-25T13:14:31.163Z,26.25
2022-10-25T13:17:32.466Z,26.03
2022-10-25T13:20:45.436Z,25.85
2022-10-25T13:24:00.769Z,25.72
2022-10-25T13:26:34.778Z,25.58
2022-10-25T13:29:39.370Z,25.46
2022-10-25T13:32:23.569Z,25.36
2022-10-25T13:35:05.316Z,25.21
2022-10-25T13:37:54.889Z,25.04
2022-10-25T13:40:32.147Z,24.88
2022-10-25T13:43:15.288Z,24.79
2022-10-25T13:45:51.893Z,24.69
2022-10-25T13:48:33.193Z,24.60
2022-10-25T13:51:26.368Z,24.53
2022-10-25T13:54:08.480Z,24.43
2022-10-25T14:04:51.359Z,24.00
2022-10-25T14:07:48.700Z,23.94
2022-10-25T14:10:28.070Z,23.87
2022-10-25T14:13:08.296Z,23.80
2022-10-25T14:15:46.640Z,23.73
2022-10-25T14:18:20.464Z,23.67
2022-10-25T14:20:53.692Z,23.58
2022-10-25T14:23:24.163Z,23.47
2022-10-25T14:25:56.283Z,23.36
2022-10-25T14:28:24.998Z,23.34
2022-10-25T14:30:55.396Z,23.22
2022-10-25T14:33:26.032Z,23.10
2022-10-25T14:35:57.566Z,23.00
2022-10-25T14:38:27.331Z,22.95
2022-10-25T14:40:57.249Z,22.87
2022-10-25T14:43:29.259Z,22.79
2022-10-25T14:45:59.682Z,22.69
2022-10-25T14:48:28.111Z,22.62
2022-10-25T14:51:01.051Z,22.59
2022-10-25T14:53:29.710Z,22.53
2022-10-25T14:56:01.004Z,22.47
2022-10-25T14:58:35.734Z,22.41
2022-10-25T15:01:09.554Z,22.34
2022-10-25T15:03:44.097Z,22.26
2022-10-25T15:06:18.448Z,22.18
2022-10-25T15:08:53.272Z,22.14
2022-10-25T15:11:27.948Z,22.04
2022-10-25T15:13:59.187Z,21.95
2022-10-25T15:16:39.621Z,21.83
2022-10-25T15:19:19.370Z,21.72
2022-10-25T15:21:52.373Z,21.60
2022-10-25T15:24:24.346Z,21.49
2022-10-25T15:26:55.955Z,21.44
2022-10-25T15:32:19.342Z,21.34
2022-10-25T15:34:50.304Z,21.27
2022-10-25T15:37:23.053Z,21.20
2022-10-25T15:39:54.096Z,21.12
2022-10-25T15:42:25.369Z,21.05
2022-10-25T15:44:54.647Z,20.95
2022-10-25T15:47:31.468Z,20.85
2022-10-25T15:50:01.903Z,20.72
2022-10-25T15:52:34.250Z,20.60
2022-10-25T15:55:03.652Z,20.55
2022-10-25T15:57:35.830Z,20.34
2022-10-25T16:00:04.958Z,20.15
2022-10-25T16:02:34.869Z,19.98
2022-10-25T16:05:04.466Z,19.84
2022-10-25T16:07:36.250Z,19.71
2022-10-25T16:10:05.572Z,19.60
2022-10-25T16:12:38.349Z,19.49
2022-10-25T16:15:11.311Z,19.37
2022-10-25T16:17:44.756Z,19.21
2022-10-25T16:20:20.158Z,19.07
2022-10-25T16:22:53.009Z,18.92
2022-10-25T16:25:25.907Z,18.76
2022-10-25T16:27:57.706Z,18.60
2022-10-25T16:30:29.588Z,18.47
2022-10-25T16:32:58.931Z,18.34
2022-10-25T16:35:28.515Z,18.22
2022-10-25T16:37:58.059Z,18.10
2022-10-25T16:40:26.261Z,18.01
2022-10-25T16:42:54.734Z,17.91
2022-10-25T16:45:26.082Z,17.81
2022-10-25T16:47:56.030Z,17.72
2022-10-25T16:50:24.809Z,17.63
2022-10-25T16:52:53.132Z,17.53
2022-10-25T16:55:22.380Z,17.42
2022-10-25T16:57:50.198Z,17.32
2022-10-25T17:00:18.240Z,17.20
2022-10-25T17:02:46.288Z,17.11
2022-10-25T17:05:19.351Z,17.06
2022-10-25T17:07:46.857Z,17.00
2022-10-25T17:10:14.853Z,16.91
2022-10-25T17:12:48.840Z,16.80
2022-10-25T17:15:17.742Z,16.70
2022-10-25T17:17:46.417Z,16.63
2022-10-25T17:20:16.002Z,16.53
2022-10-25T17:22:43.566Z,16.43
2022-10-25T17:25:12.366Z,16.34
2022-10-25T17:27:42.655Z,16.27
2022-10-25T17:30:12.849Z,16.20
2022-10-25T17:32:40.397Z,16.09
2022-10-25T17:35:08.192Z,16.00
2022-10-25T17:37:35.890Z,15.94
2022-10-25T17:40:05.827Z,15.88
2022-10-25T17:42:33.720Z,15.84
2022-10-25T17:45:01.216Z,15.79
2022-10-25T17:47:30.283Z,15.73
2022-10-25T17:50:01.636Z,15.71
2022-10-25T17:52:30.587Z,15.70
2022-10-25T17:54:58.665Z,15.64
2022-10-25T17:57:26.889Z,15.61
2022-10-25T17:59:55.099Z,15.58
2022-10-25T18:02:22.945Z,15.53
2022-10-25T18:05:18.983Z,15.45
2022-10-25T18:07:39.625Z,15.39
2022-10-25T18:10:07.548Z,15.33
2022-10-25T18:12:35.044Z,15.30
2022-10-25T18:15:02.613Z,15.28
2022-10-25T18:17:30.279Z,15.29
2022-10-25T18:19:59.220Z,15.28
2022-10-25T18:22:26.766Z,15.26
2022-10-25T18:24:54.262Z,15.25
2022-10-25T18:27:21.838Z,15.26
2022-10-25T18:29:49.347Z,15.29
2022-10-25T18:32:16.869Z,15.30
2022-10-25T18:34:44.409Z,15.27
2022-10-25T18:37:13.227Z,15.19
2022-10-25T18:39:40.771Z,15.14
2022-10-25T18:42:08.267Z,15.06
2022-10-25T18:44:35.766Z,14.99
2022-10-25T18:47:03.349Z,14.96
2022-10-25T18:49:30.865Z,14.93
2022-10-25T18:51:59.116Z,14.90
2022-10-25T18:54:28.234Z,14.90
2022-10-25T18:56:56.132Z,14.92
2022-10-25T18:59:23.870Z,14.90
2022-10-25T19:01:51.760Z,14.88
2022-10-25T19:04:19.861Z,14.86
2022-10-25T19:06:47.399Z,14.81
2022-10-25T19:09:15.341Z,14.78
2022-10-25T19:11:44.390Z,14.72
2022-10-25T19:14:12.298Z,14.73
2022-10-25T19:16:41.342Z,14.73
2022-10-25T19:19:09.304Z,14.68
2022-10-25T19:21:36.963Z,14.67
2022-10-25T19:24:05.129Z,14.67
2022-10-25T19:26:33.009Z,14.67
2022-10-25T19:29:02.660Z,14.75
2022-10-25T19:31:36.771Z,14.82
2022-10-25T19:34:04.441Z,14.83
2022-10-25T19:36:33.050Z,14.82
2022-10-25T19:39:01.571Z,14.77
2022-10-25T19:41:29.430Z,14.74
2022-10-25T19:43:59.060Z,14.73
2022-10-25T19:46:28.272Z,14.76
2022-10-25T19:48:56.730Z,14.71
2022-10-25T19:51:24.709Z,14.66
2022-10-25T19:53:52.397Z,14.66
2022-10-25T19:56:22.705Z,14.66
2022-10-25T19:58:52.637Z,14.71
2022-10-25T20:01:23.343Z,14.68
2022-10-25T20:03:57.611Z,14.67
2022-10-25T20:06:31.248Z,14.68
2022-10-25T20:09:08.916Z,14.69
2022-10-25T20:11:37.046Z,14.62
2022-10-25T20:14:14.990Z,14.55
2022-10-25T20:16:55.905Z,14.54
2022-10-25T20:19:33.387Z,14.56
2022-10-25T20:22:03.400Z,14.60
2022-10-25T20:24:34.634Z,14.59
2022-10-25T20:27:16.640Z,14.54
2022-10-25T20:29:54.559Z,14.48
2022-10-25T20:32:48.581Z,14.40
2022-10-25T20:35:27.031Z,14.36
2022-10-25T20:38:08.153Z,14.37
2022-10-25T20:41:06.987Z,14.37
2022-10-25T20:43:38.535Z,14.33
2022-10-25T20:46:14.828Z,14.24
2022-10-25T20:48:55.963Z,14.17
2022-10-25T20:51:40.470Z,14.12
2022-10-25T20:54:23.156Z,14.11
2022-10-25T20:56:54.480Z,14.11
2022-10-25T20:59:26.465Z,14.15
2022-10-25T21:01:57.904Z,14.18
2022-10-25T21:04:42.327Z,14.15
2022-10-25T21:07:27.233Z,14.09
2022-10-25T21:09:58.290Z,13.99
2022-10-25T21:12:28.803Z,13.94
2022-10-25T21:15:05.859Z,13.95
2022-10-25T21:17:40.976Z,14.00
2022-10-25T21:20:18.749Z,14.07
2022-10-25T21:22:59.204Z,14.07
2022-10-25T21:25:29.781Z,13.98
2022-10-25T21:27:59.293Z,13.98
2022-10-25T21:30:46.439Z,13.98
2022-10-25T21:33:33.729Z,13.98
2022-10-25T21:36:26.393Z,13.99
2022-10-25T21:39:50.183Z,14.00
2022-10-25T21:42:57.486Z,14.01
2022-10-25T21:45:45.334Z,14.08
2022-10-25T21:50:54.686Z,14.11
2022-10-25T21:53:22.405Z,14.15
2022-10-25T21:55:51.375Z,14.17
2022-10-25T21:58:19.014Z,14.22
2022-10-25T22:00:46.561Z,14.23
2022-10-25T22:03:14.113Z,14.24
2022-10-25T22:05:43.999Z,14.24
2022-10-25T22:08:11.512Z,14.26
2022-10-25T22:10:39.099Z,14.29
2022-10-25T22:13:08.000Z,14.31
2022-10-25T22:15:35.599Z,14.35
2022-10-25T22:18:03.203Z,14.35
2022-10-25T22:20:30.817Z,14.32
2022-10-25T22:22:58.329Z,14.31
2022-10-25T22:25:26.062Z,14.32
2022-10-25T22:27:53.628Z,14.35
2022-10-25T22:30:22.677Z,14.38
2022-10-25T22:32:50.614Z,14.39
2022-10-25T22:35:18.387Z,14.40
